sensor_id;sensor_type;location;lat;lon;timestamp;P1;durP1;ratioP1;P2;durP2;ratioP2
61617;SDS011;47518;51.776;9.370;2022-12-18T00:01:26;54.43;;;23.40;;
61617;SDS011;47518;51.776;9.370;2022-12-18T00:03:54;52.13;;;23.33;;
61617;SDS011;47518;51.776;9.370;2022-12-18T00:06:20;57.40;;;23.63;;
61617;SDS011;47518;51.776;9.370;2022-12-18T00:08:47;54.60;;;22.57;;
61617;SDS011;47518;51.776;9.370;2022-12-18T00:11:14;49.27;;;22.37;;
61617;SDS011;47518;51.776;9.370;2022-12-18T00:13:42;50.23;;;21.63;;
61617;SDS011;47518;51.776;9.370;2022-12-18T00:16:10;51.00;;;20.77;;
61617;SDS011;47518;51.776;9.370;2022-12-18T00:18:37;55.27;;;26.93;;
61617;SDS011;47518;51.776;9.370;2022-12-18T00:21:04;53.07;;;24.60;;
61617;SDS011;47518;51.776;9.370;2022-12-18T00:23:31;56.63;;;25.20;;
61617;SDS011;47518;51.776;9.370;2022-12-18T00:25:58;51.60;;;23.43;;
61617;SDS011;47518;51.776;9.370;2022-12-18T00:28:25;50.50;;;21.60;;
61617;SDS011;47518;51.776;9.370;2022-12-18T00:30:58;48.50;;;22.73;;
61617;SDS011;47518;51.776;9.370;2022-12-18T00:33:25;47.00;;;21.07;;
61617;SDS011;47518;51.776;9.370;2022-12-18T00:35:50;50.33;;;22.03;;
61617;SDS011;47518;51.776;9.370;2022-12-18T00:38:15;44.63;;;20.90;;
61617;SDS011;47518;51.776;9.370;2022-12-18T00:40:41;50.20;;;23.93;;
61617;SDS011;47518;51.776;9.370;2022-12-18T00:43:08;47.30;;;20.20;;
61617;SDS011;47518;51.776;9.370;2022-12-18T00:45:34;48.17;;;22.20;;
61617;SDS011;47518;51.776;9.370;2022-12-18T00:47:59;53.00;;;22.00;;
61617;SDS011;47518;51.776;9.370;2022-12-18T00:50:24;45.90;;;20.67;;
61617;SDS011;47518;51.776;9.370;2022-12-18T00:52:50;54.13;;;21.50;;
61617;SDS011;47518;51.776;9.370;2022-12-18T00:55:16;55.57;;;21.77;;
61617;SDS011;47518;51.776;9.370;2022-12-18T00:57:41;55.27;;;23.50;;
61617;SDS011;47518;51.776;9.370;2022-12-18T01:00:08;54.10;;;28.57;;
61617;SDS011;47518;51.776;9.370;2022-12-18T01:02:35;56.30;;;26.60;;
61617;SDS011;47518;51.776;9.370;2022-12-18T01:05:01;46.20;;;20.87;;
61617;SDS011;47518;51.776;9.370;2022-12-18T01:07:26;51.77;;;23.27;;
61617;SDS011;47518;51.776;9.370;2022-12-18T01:09:52;56.83;;;25.73;;
61617;SDS011;47518;51.776;9.370;2022-12-18T01:12:17;50.80;;;21.23;;
61617;SDS011;47518;51.776;9.370;2022-12-18T01:14:43;47.10;;;20.97;;
61617;SDS011;47518;51.776;9.370;2022-12-18T01:17:08;47.63;;;20.03;;
61617;SDS011;47518;51.776;9.370;2022-12-18T01:19:33;45.77;;;20.33;;
61617;SDS011;47518;51.776;9.370;2022-12-18T01:21:59;49.50;;;19.70;;
61617;SDS011;47518;51.776;9.370;2022-12-18T01:24:24;46.20;;;19.53;;
61617;SDS011;47518;51.776;9.370;2022-12-18T01:26:50;48.37;;;21.20;;
61617;SDS011;47518;51.776;9.370;2022-12-18T01:29:15;55.63;;;25.37;;
61617;SDS011;47518;51.776;9.370;2022-12-18T01:31:40;47.80;;;23.20;;
61617;SDS011;47518;51.776;9.370;2022-12-18T01:34:06;45.90;;;22.17;;
61617;SDS011;47518;51.776;9.370;2022-12-18T01:36:32;52.63;;;24.60;;
61617;SDS011;47518;51.776;9.370;2022-12-18T01:38:59;49.67;;;24.80;;
61617;SDS011;47518;51.776;9.370;2022-12-18T01:41:27;51.57;;;25.37;;
61617;SDS011;47518;51.776;9.370;2022-12-18T01:47:22;47.33;;;20.23;;
61617;SDS011;47518;51.776;9.370;2022-12-18T01:50:10;48.33;;;20.23;;
61617;SDS011;47518;51.776;9.370;2022-12-18T01:52:42;50.03;;;25.10;;
61617;SDS011;47518;51.776;9.370;2022-12-18T01:55:11;48.73;;;23.93;;
61617;SDS011;47518;51.776;9.370;2022-12-18T01:57:39;54.13;;;24.37;;
61617;SDS011;47518;51.776;9.370;2022-12-18T02:00:07;48.10;;;22.93;;
61617;SDS011;47518;51.776;9.370;2022-12-18T02:02:36;44.67;;;23.88;;
61617;SDS011;47518;51.776;9.370;2022-12-18T02:05:02;42.93;;;21.77;;
61617;SDS011;47518;51.776;9.370;2022-12-18T02:07:36;43.80;;;21.50;;
61617;SDS011;47518;51.776;9.370;2022-12-18T02:15:41;47.50;;;21.93;;
61617;SDS011;47518;51.776;9.370;2022-12-18T02:18:20;44.80;;;18.60;;
61617;SDS011;47518;51.776;9.370;2022-12-18T02:20:53;40.83;;;17.90;;
61617;SDS011;47518;51.776;9.370;2022-12-18T02:31:53;44.30;;;18.10;;
61617;SDS011;47518;51.776;9.370;2022-12-18T02:34:22;43.87;;;18.40;;
61617;SDS011;47518;51.776;9.370;2022-12-18T02:36:52;43.60;;;18.30;;
61617;SDS011;47518;51.776;9.370;2022-12-18T02:39:19;35.73;;;16.23;;
61617;SDS011;47518;51.776;9.370;2022-12-18T02:41:48;42.23;;;17.67;;
61617;SDS011;47518;51.776;9.370;2022-12-18T02:44:14;39.63;;;17.00;;
61617;SDS011;47518;51.776;9.370;2022-12-18T02:46:42;43.67;;;20.73;;
61617;SDS011;47518;51.776;9.370;2022-12-18T02:54:49;42.60;;;22.13;;
61617;SDS011;47518;51.776;9.370;2022-12-18T02:57:34;44.97;;;21.23;;
61617;SDS011;47518;51.776;9.370;2022-12-18T03:00:08;45.57;;;23.50;;
61617;SDS011;47518;51.776;9.370;2022-12-18T03:02:39;49.47;;;22.03;;
61617;SDS011;47518;51.776;9.370;2022-12-18T03:08:02;42.20;;;22.40;;
61617;SDS011;47518;51.776;9.370;2022-12-18T03:10:34;46.27;;;23.47;;
61617;SDS011;47518;51.776;9.370;2022-12-18T03:13:05;43.10;;;22.23;;
61617;SDS011;47518;51.776;9.370;2022-12-18T03:15:35;44.90;;;22.20;;
61617;SDS011;47518;51.776;9.370;2022-12-18T03:18:06;44.15;;;23.75;;
61617;SDS011;47518;51.776;9.370;2022-12-18T03:20:38;48.40;;;22.77;;
61617;SDS011;47518;51.776;9.370;2022-12-18T03:23:09;41.33;;;21.00;;
61617;SDS011;47518;51.776;9.370;2022-12-18T03:25:39;40.67;;;20.10;;
61617;SDS011;47518;51.776;9.370;2022-12-18T03:28:08;42.40;;;22.83;;
61617;SDS011;47518;51.776;9.370;2022-12-18T03:30:38;41.57;;;22.00;;
61617;SDS011;47518;51.776;9.370;2022-12-18T03:33:16;41.33;;;21.20;;
61617;SDS011;47518;51.776;9.370;2022-12-18T03:35:46;42.77;;;21.03;;
61617;SDS011;47518;51.776;9.370;2022-12-18T03:38:12;39.90;;;21.20;;
61617;SDS011;47518;51.776;9.370;2022-12-18T03:40:43;39.90;;;19.30;;
61617;SDS011;47518;51.776;9.370;2022-12-18T03:43:34;40.20;;;21.00;;
61617;SDS011;47518;51.776;9.370;2022-12-18T03:46:10;44.07;;;22.87;;
61617;SDS011;47518;51.776;9.370;2022-12-18T03:48:43;40.67;;;20.13;;
61617;SDS011;47518;51.776;9.370;2022-12-18T03:51:16;45.10;;;22.63;;
61617;SDS011;47518;51.776;9.370;2022-12-18T03:53:52;46.27;;;23.13;;
61617;SDS011;47518;51.776;9.370;2022-12-18T03:56:22;39.77;;;20.53;;
61617;SDS011;47518;51.776;9.370;2022-12-18T04:01:24;40.03;;;17.30;;
61617;SDS011;47518;51.776;9.370;2022-12-18T04:03:54;45.63;;;18.27;;
61617;SDS011;47518;51.776;9.370;2022-12-18T04:06:21;37.03;;;19.80;;
61617;SDS011;47518;51.776;9.370;2022-12-18T04:08:47;34.20;;;14.83;;
61617;SDS011;47518;51.776;9.370;2022-12-18T04:11:14;33.50;;;14.83;;
61617;SDS011;47518;51.776;9.370;2022-12-18T04:13:40;32.23;;;14.13;;
61617;SDS011;47518;51.776;9.370;2022-12-18T04:16:07;33.47;;;14.77;;
61617;SDS011;47518;51.776;9.370;2022-12-18T04:18:34;34.57;;;16.20;;
61617;SDS011;47518;51.776;9.370;2022-12-18T04:21:00;36.47;;;14.63;;
61617;SDS011;47518;51.776;9.370;2022-12-18T04:23:25;31.37;;;16.17;;
61617;SDS011;47518;51.776;9.370;2022-12-18T04:25:50;33.87;;;13.60;;
61617;SDS011;47518;51.776;9.370;2022-12-18T04:28:16;33.07;;;16.80;;
61617;SDS011;47518;51.776;9.370;2022-12-18T04:30:41;30.97;;;16.97;;
61617;SDS011;47518;51.776;9.370;2022-12-18T04:33:09;39.83;;;17.63;;
61617;SDS011;47518;51.776;9.370;2022-12-18T04:35:35;42.37;;;19.20;;
61617;SDS011;47518;51.776;9.370;2022-12-18T04:38:01;33.83;;;17.43;;
61617;SDS011;47518;51.776;9.370;2022-12-18T04:40:26;36.27;;;17.63;;
61617;SDS011;47518;51.776;9.370;2022-12-18T04:42:51;35.67;;;17.50;;
61617;SDS011;47518;51.776;9.370;2022-12-18T04:45:16;30.70;;;16.07;;
61617;SDS011;47518;51.776;9.370;2022-12-18T04:47:42;33.90;;;14.47;;
61617;SDS011;47518;51.776;9.370;2022-12-18T04:50:07;35.33;;;17.80;;
61617;SDS011;47518;51.776;9.370;2022-12-18T04:52:33;35.00;;;14.80;;
61617;SDS011;47518;51.776;9.370;2022-12-18T04:54:58;33.90;;;14.70;;
61617;SDS011;47518;51.776;9.370;2022-12-18T04:57:23;35.17;;;16.73;;
61617;SDS011;47518;51.776;9.370;2022-12-18T04:59:49;36.97;;;19.63;;
61617;SDS011;47518;51.776;9.370;2022-12-18T05:02:14;37.23;;;17.10;;
61617;SDS011;47518;51.776;9.370;2022-12-18T05:04:39;36.53;;;17.90;;
61617;SDS011;47518;51.776;9.370;2022-12-18T05:07:05;39.23;;;19.60;;
61617;SDS011;47518;51.776;9.370;2022-12-18T05:09:30;32.40;;;17.70;;
61617;SDS011;47518;51.776;9.370;2022-12-18T05:24:31;41.07;;;22.47;;
61617;SDS011;47518;51.776;9.370;2022-12-18T05:26:56;39.70;;;22.10;;
61617;SDS011;47518;51.776;9.370;2022-12-18T05:29:22;38.13;;;20.90;;
61617;SDS011;47518;51.776;9.370;2022-12-18T05:31:47;38.60;;;20.63;;
61617;SDS011;47518;51.776;9.370;2022-12-18T05:34:12;41.60;;;21.73;;
61617;SDS011;47518;51.776;9.370;2022-12-18T05:36:38;44.53;;;22.80;;
61617;SDS011;47518;51.776;9.370;2022-12-18T05:39:03;39.03;;;21.07;;
61617;SDS011;47518;51.776;9.370;2022-12-18T05:41:29;34.90;;;19.90;;
61617;SDS011;47518;51.776;9.370;2022-12-18T05:43:54;34.10;;;19.50;;
61617;SDS011;47518;51.776;9.370;2022-12-18T05:46:19;35.53;;;19.87;;
61617;SDS011;47518;51.776;9.370;2022-12-18T05:48:45;38.27;;;20.83;;
61617;SDS011;47518;51.776;9.370;2022-12-18T05:51:12;40.77;;;21.80;;
61617;SDS011;47518;51.776;9.370;2022-12-18T05:53:39;37.70;;;20.30;;
61617;SDS011;47518;51.776;9.370;2022-12-18T05:56:07;38.13;;;19.73;;
61617;SDS011;47518;51.776;9.370;2022-12-18T05:58:34;41.80;;;19.93;;
61617;SDS011;47518;51.776;9.370;2022-12-18T06:01:08;37.50;;;19.93;;
61617;SDS011;47518;51.776;9.370;2022-12-18T06:03:36;35.60;;;19.87;;
61617;SDS011;47518;51.776;9.370;2022-12-18T06:06:02;37.57;;;20.43;;
61617;SDS011;47518;51.776;9.370;2022-12-18T06:08:28;38.20;;;20.40;;
61617;SDS011;47518;51.776;9.370;2022-12-18T06:10:53;36.60;;;20.10;;
61617;SDS011;47518;51.776;9.370;2022-12-18T06:13:19;37.43;;;20.10;;
61617;SDS011;47518;51.776;9.370;2022-12-18T06:15:45;37.00;;;20.00;;
61617;SDS011;47518;51.776;9.370;2022-12-18T06:18:10;39.13;;;20.27;;
61617;SDS011;47518;51.776;9.370;2022-12-18T06:20:36;36.50;;;20.17;;
61617;SDS011;47518;51.776;9.370;2022-12-18T06:23:04;40.20;;;20.47;;
61617;SDS011;47518;51.776;9.370;2022-12-18T06:25:29;36.50;;;19.53;;
61617;SDS011;47518;51.776;9.370;2022-12-18T06:27:55;37.67;;;19.80;;
61617;SDS011;47518;51.776;9.370;2022-12-18T06:30:20;32.90;;;19.20;;
61617;SDS011;47518;51.776;9.370;2022-12-18T06:32:45;39.07;;;20.30;;
61617;SDS011;47518;51.776;9.370;2022-12-18T06:35:13;36.23;;;20.33;;
61617;SDS011;47518;51.776;9.370;2022-12-18T06:37:38;35.83;;;19.70;;
61617;SDS011;47518;51.776;9.370;2022-12-18T06:40:04;36.67;;;19.87;;
61617;SDS011;47518;51.776;9.370;2022-12-18T06:42:30;36.47;;;19.47;;
61617;SDS011;47518;51.776;9.370;2022-12-18T06:44:55;37.87;;;19.37;;
61617;SDS011;47518;51.776;9.370;2022-12-18T06:47:21;36.47;;;20.13;;
61617;SDS011;47518;51.776;9.370;2022-12-18T06:49:46;34.03;;;19.17;;
61617;SDS011;47518;51.776;9.370;2022-12-18T06:52:11;37.07;;;19.13;;
61617;SDS011;47518;51.776;9.370;2022-12-18T06:54:37;38.67;;;20.47;;
61617;SDS011;47518;51.776;9.370;2022-12-18T06:57:02;32.63;;;19.07;;
61617;SDS011;47518;51.776;9.370;2022-12-18T06:59:27;35.90;;;20.13;;
61617;SDS011;47518;51.776;9.370;2022-12-18T07:01:53;35.90;;;20.33;;
61617;SDS011;47518;51.776;9.370;2022-12-18T07:04:18;39.30;;;19.87;;
61617;SDS011;47518;51.776;9.370;2022-12-18T07:06:43;35.37;;;19.30;;
61617;SDS011;47518;51.776;9.370;2022-12-18T07:09:09;38.30;;;19.40;;
61617;SDS011;47518;51.776;9.370;2022-12-18T07:11:34;36.60;;;19.70;;
61617;SDS011;47518;51.776;9.370;2022-12-18T07:14:00;34.17;;;19.13;;
61617;SDS011;47518;51.776;9.370;2022-12-18T07:16:25;37.63;;;20.30;;
61617;SDS011;47518;51.776;9.370;2022-12-18T07:18:53;37.40;;;19.90;;
61617;SDS011;47518;51.776;9.370;2022-12-18T07:21:20;35.17;;;19.90;;
61617;SDS011;47518;51.776;9.370;2022-12-18T07:23:46;36.27;;;19.63;;
61617;SDS011;47518;51.776;9.370;2022-12-18T07:26:13;35.57;;;20.77;;
61617;SDS011;47518;51.776;9.370;2022-12-18T07:28:39;39.53;;;20.37;;
61617;SDS011;47518;51.776;9.370;2022-12-18T07:31:06;41.27;;;20.80;;
61617;SDS011;47518;51.776;9.370;2022-12-18T07:33:34;40.57;;;21.47;;
61617;SDS011;47518;51.776;9.370;2022-12-18T07:36:00;46.23;;;23.40;;
61617;SDS011;47518;51.776;9.370;2022-12-18T07:38:26;46.10;;;23.43;;
61617;SDS011;47518;51.776;9.370;2022-12-18T07:40:52;40.87;;;20.90;;
61617;SDS011;47518;51.776;9.370;2022-12-18T07:43:17;43.23;;;23.10;;
61617;SDS011;47518;51.776;9.370;2022-12-18T07:45:43;43.23;;;23.53;;
61617;SDS011;47518;51.776;9.370;2022-12-18T07:48:08;45.73;;;24.27;;
61617;SDS011;47518;51.776;9.370;2022-12-18T07:50:34;40.47;;;21.20;;
61617;SDS011;47518;51.776;9.370;2022-12-18T07:52:59;40.57;;;20.80;;
61617;SDS011;47518;51.776;9.370;2022-12-18T07:55:28;42.43;;;21.53;;
61617;SDS011;47518;51.776;9.370;2022-12-18T07:57:54;43.03;;;21.97;;
61617;SDS011;47518;51.776;9.370;2022-12-18T08:00:19;42.80;;;22.17;;
61617;SDS011;47518;51.776;9.370;2022-12-18T08:02:45;38.90;;;20.47;;
61617;SDS011;47518;51.776;9.370;2022-12-18T08:05:10;40.33;;;21.47;;
61617;SDS011;47518;51.776;9.370;2022-12-18T08:07:35;42.63;;;22.10;;
61617;SDS011;47518;51.776;9.370;2022-12-18T08:10:01;42.90;;;21.83;;
61617;SDS011;47518;51.776;9.370;2022-12-18T08:12:26;40.30;;;20.83;;
61617;SDS011;47518;51.776;9.370;2022-12-18T08:14:51;42.60;;;21.83;;
61617;SDS011;47518;51.776;9.370;2022-12-18T08:17:16;46.03;;;21.77;;
61617;SDS011;47518;51.776;9.370;2022-12-18T08:19:42;42.17;;;22.57;;
61617;SDS011;47518;51.776;9.370;2022-12-18T08:22:07;46.13;;;23.43;;
61617;SDS011;47518;51.776;9.370;2022-12-18T08:24:32;42.30;;;22.40;;
61617;SDS011;47518;51.776;9.370;2022-12-18T08:26:57;42.13;;;21.73;;
61617;SDS011;47518;51.776;9.370;2022-12-18T08:29:23;44.10;;;21.87;;
61617;SDS011;47518;51.776;9.370;2022-12-18T08:31:48;41.60;;;22.13;;
61617;SDS011;47518;51.776;9.370;2022-12-18T08:34:14;46.83;;;22.60;;
61617;SDS011;47518;51.776;9.370;2022-12-18T08:36:39;41.80;;;21.60;;
61617;SDS011;47518;51.776;9.370;2022-12-18T08:39:05;42.83;;;21.53;;
61617;SDS011;47518;51.776;9.370;2022-12-18T08:41:30;41.63;;;21.07;;
61617;SDS011;47518;51.776;9.370;2022-12-18T08:43:55;42.13;;;20.63;;
61617;SDS011;47518;51.776;9.370;2022-12-18T08:46:41;42.00;;;21.47;;
61617;SDS011;47518;51.776;9.370;2022-12-18T08:49:09;42.33;;;21.20;;
61617;SDS011;47518;51.776;9.370;2022-12-18T08:51:35;42.93;;;20.97;;
61617;SDS011;47518;51.776;9.370;2022-12-18T08:54:01;46.30;;;22.73;;
61617;SDS011;47518;51.776;9.370;2022-12-18T08:56:26;40.77;;;21.30;;
61617;SDS011;47518;51.776;9.370;2022-12-18T08:58:52;42.17;;;21.70;;
61617;SDS011;47518;51.776;9.370;2022-12-18T09:01:18;42.90;;;22.77;;
61617;SDS011;47518;51.776;9.370;2022-12-18T09:03:47;45.73;;;22.40;;
61617;SDS011;47518;51.776;9.370;2022-12-18T09:06:14;42.03;;;21.90;;
61617;SDS011;47518;51.776;9.370;2022-12-18T09:08:41;46.40;;;23.03;;
61617;SDS011;47518;51.776;9.370;2022-12-18T09:11:27;45.30;;;23.07;;
61617;SDS011;47518;51.776;9.370;2022-12-18T09:13:53;44.83;;;21.43;;
61617;SDS011;47518;51.776;9.370;2022-12-18T09:16:19;44.27;;;21.67;;
61617;SDS011;47518;51.776;9.370;2022-12-18T09:18:46;43.17;;;21.70;;
61617;SDS011;47518;51.776;9.370;2022-12-18T09:21:13;44.40;;;22.73;;
61617;SDS011;47518;51.776;9.370;2022-12-18T09:23:41;42.10;;;22.67;;
61617;SDS011;47518;51.776;9.370;2022-12-18T09:26:07;42.90;;;21.33;;
61617;SDS011;47518;51.776;9.370;2022-12-18T09:28:32;38.93;;;21.07;;
61617;SDS011;47518;51.776;9.370;2022-12-18T09:30:58;44.87;;;21.10;;
61617;SDS011;47518;51.776;9.370;2022-12-18T09:33:23;42.17;;;22.33;;
61617;SDS011;47518;51.776;9.370;2022-12-18T09:35:49;42.80;;;21.63;;
61617;SDS011;47518;51.776;9.370;2022-12-18T09:38:15;43.47;;;22.73;;
61617;SDS011;47518;51.776;9.370;2022-12-18T09:40:45;42.53;;;22.47;;
61617;SDS011;47518;51.776;9.370;2022-12-18T09:45:46;43.38;;;22.08;;
61617;SDS011;47518;51.776;9.370;2022-12-18T09:48:25;37.60;;;20.63;;
61617;SDS011;47518;51.776;9.370;2022-12-18T09:50:58;41.40;;;22.10;;
61617;SDS011;47518;51.776;9.370;2022-12-18T09:53:27;35.33;;;20.42;;
61617;SDS011;47518;51.776;9.370;2022-12-18T09:55:57;41.40;;;21.50;;
61617;SDS011;47518;51.776;9.370;2022-12-18T09:58:28;35.85;;;20.17;;
61617;SDS011;47518;51.776;9.370;2022-12-18T10:00:57;38.30;;;20.58;;
61617;SDS011;47518;51.776;9.370;2022-12-18T10:03:22;40.47;;;21.05;;
61617;SDS011;47518;51.776;9.370;2022-12-18T10:05:53;37.05;;;20.10;;
61617;SDS011;47518;51.776;9.370;2022-12-18T10:08:39;37.78;;;20.67;;
61617;SDS011;47518;51.776;9.370;2022-12-18T10:14:10;39.92;;;20.70;;
61617;SDS011;47518;51.776;9.370;2022-12-18T10:19:45;34.72;;;20.50;;
61617;SDS011;47518;51.776;9.370;2022-12-18T10:35:29;27.98;;;14.45;;
61617;SDS011;47518;51.776;9.370;2022-12-18T10:41:05;33.45;;;19.77;;
61617;SDS011;47518;51.776;9.370;2022-12-18T10:44:10;35.33;;;19.92;;
61617;SDS011;47518;51.776;9.370;2022-12-18T10:46:53;31.83;;;15.75;;
61617;SDS011;47518;51.776;9.370;2022-12-18T10:49:29;31.40;;;16.15;;
61617;SDS011;47518;51.776;9.370;2022-12-18T10:52:05;30.83;;;16.25;;
61617;SDS011;47518;51.776;9.370;2022-12-18T10:54:37;29.23;;;16.05;;
61617;SDS011;47518;51.776;9.370;2022-12-18T11:00:24;29.02;;;14.30;;
61617;SDS011;47518;51.776;9.370;2022-12-18T11:02:52;32.70;;;15.00;;
61617;SDS011;47518;51.776;9.370;2022-12-18T11:05:23;30.33;;;15.15;;
61617;SDS011;47518;51.776;9.370;2022-12-18T11:18:29;31.17;;;13.98;;
61617;SDS011;47518;51.776;9.370;2022-12-18T11:20:59;29.17;;;14.88;;
61617;SDS011;47518;51.776;9.370;2022-12-18T11:23:32;35.20;;;16.77;;
61617;SDS011;47518;51.776;9.370;2022-12-18T11:25:59;30.55;;;14.57;;
61617;SDS011;47518;51.776;9.370;2022-12-18T11:33:57;25.73;;;12.70;;
61617;SDS011;47518;51.776;9.370;2022-12-18T11:36:28;24.25;;;12.30;;
61617;SDS011;47518;51.776;9.370;2022-12-18T11:41:34;23.30;;;12.20;;
61617;SDS011;47518;51.776;9.370;2022-12-18T11:44:28;21.75;;;11.27;;
61617;SDS011;47518;51.776;9.370;2022-12-18T11:47:03;25.35;;;12.18;;
61617;SDS011;47518;51.776;9.370;2022-12-18T11:49:36;32.63;;;15.77;;
61617;SDS011;47518;51.776;9.370;2022-12-18T11:52:03;27.88;;;13.48;;
61617;SDS011;47518;51.776;9.370;2022-12-18T11:54:34;26.50;;;13.02;;
61617;SDS011;47518;51.776;9.370;2022-12-18T11:57:03;27.25;;;13.43;;
61617;SDS011;47518;51.776;9.370;2022-12-18T12:10:27;26.92;;;12.00;;
61617;SDS011;47518;51.776;9.370;2022-12-18T12:13:15;27.15;;;12.43;;
61617;SDS011;47518;51.776;9.370;2022-12-18T12:15:52;24.52;;;11.48;;
61617;SDS011;47518;51.776;9.370;2022-12-18T12:18:31;30.05;;;13.05;;
61617;SDS011;47518;51.776;9.370;2022-12-18T12:34:26;28.33;;;12.90;;
61617;SDS011;47518;51.776;9.370;2022-12-18T12:39:50;28.73;;;13.57;;
61617;SDS011;47518;51.776;9.370;2022-12-18T12:42:25;28.15;;;13.98;;
61617;SDS011;47518;51.776;9.370;2022-12-18T12:45:21;30.60;;;13.98;;
61617;SDS011;47518;51.776;9.370;2022-12-18T12:47:53;29.27;;;13.95;;
61617;SDS011;47518;51.776;9.370;2022-12-18T12:50:21;31.20;;;15.05;;
61617;SDS011;47518;51.776;9.370;2022-12-18T12:52:49;33.25;;;16.05;;
61617;SDS011;47518;51.776;9.370;2022-12-18T12:55:22;15.32;;;7.18;;
61617;SDS011;47518;51.776;9.370;2022-12-18T12:58:07;12.23;;;6.60;;
61617;SDS011;47518;51.776;9.370;2022-12-18T13:00:41;14.63;;;7.05;;
61617;SDS011;47518;51.776;9.370;2022-12-18T13:03:20;13.25;;;6.72;;
61617;SDS011;47518;51.776;9.370;2022-12-18T13:06:00;12.25;;;6.50;;
61617;SDS011;47518;51.776;9.370;2022-12-18T13:08:34;13.00;;;7.03;;
61617;SDS011;47518;51.776;9.370;2022-12-18T13:14:29;13.20;;;6.93;;
61617;SDS011;47518;51.776;9.370;2022-12-18T13:59:32;13.48;;;6.93;;
61617;SDS011;47518;51.776;9.370;2022-12-18T14:02:09;15.13;;;7.03;;
61617;SDS011;47518;51.776;9.370;2022-12-18T14:04:39;13.80;;;7.00;;
61617;SDS011;47518;51.776;9.370;2022-12-18T14:07:06;13.25;;;6.68;;
61617;SDS011;47518;51.776;9.370;2022-12-18T14:09:36;14.93;;;6.97;;
61617;SDS011;47518;51.776;9.370;2022-12-18T14:12:06;13.88;;;6.57;;
61617;SDS011;47518;51.776;9.370;2022-12-18T14:15:01;13.25;;;6.80;;
61617;SDS011;47518;51.776;9.370;2022-12-18T14:17:27;14.73;;;7.32;;
61617;SDS011;47518;51.776;9.370;2022-12-18T14:19:52;12.25;;;5.85;;
61617;SDS011;47518;51.776;9.370;2022-12-18T14:22:21;13.75;;;6.85;;
61617;SDS011;47518;51.776;9.370;2022-12-18T14:38:37;12.50;;;6.93;;
61617;SDS011;47518;51.776;9.370;2022-12-18T14:41:04;10.70;;;5.38;;
61617;SDS011;47518;51.776;9.370;2022-12-18T14:43:36;12.65;;;6.90;;
61617;SDS011;47518;51.776;9.370;2022-12-18T14:46:04;10.05;;;5.50;;
61617;SDS011;47518;51.776;9.370;2022-12-18T15:01:30;12.10;;;6.20;;
61617;SDS011;47518;51.776;9.370;2022-12-18T15:04:00;14.00;;;7.13;;
61617;SDS011;47518;51.776;9.370;2022-12-18T15:19:34;14.10;;;6.45;;
61617;SDS011;47518;51.776;9.370;2022-12-18T15:22:03;14.35;;;6.38;;
61617;SDS011;47518;51.776;9.370;2022-12-18T15:24:30;9.27;;;5.18;;
61617;SDS011;47518;51.776;9.370;2022-12-18T15:26:57;13.05;;;6.30;;
61617;SDS011;47518;51.776;9.370;2022-12-18T15:29:23;11.75;;;5.90;;
61617;SDS011;47518;51.776;9.370;2022-12-18T15:31:58;11.98;;;6.00;;
61617;SDS011;47518;51.776;9.370;2022-12-18T15:34:24;12.13;;;5.88;;
61617;SDS011;47518;51.776;9.370;2022-12-18T15:36:51;15.05;;;5.93;;
61617;SDS011;47518;51.776;9.370;2022-12-18T15:39:20;10.75;;;5.88;;
61617;SDS011;47518;51.776;9.370;2022-12-18T15:41:45;13.27;;;6.03;;
61617;SDS011;47518;51.776;9.370;2022-12-18T15:44:31;10.70;;;6.10;;
61617;SDS011;47518;51.776;9.370;2022-12-18T15:46:57;13.60;;;6.07;;
61617;SDS011;47518;51.776;9.370;2022-12-18T15:49:23;10.20;;;5.80;;
61617;SDS011;47518;51.776;9.370;2022-12-18T15:51:52;11.65;;;6.18;;
61617;SDS011;47518;51.776;9.370;2022-12-18T15:54:20;12.00;;;5.30;;
61617;SDS011;47518;51.776;9.370;2022-12-18T15:57:08;10.60;;;5.82;;
61617;SDS011;47518;51.776;9.370;2022-12-18T15:59:51;13.02;;;6.07;;
61617;SDS011;47518;51.776;9.370;2022-12-18T16:02:18;16.17;;;6.55;;
61617;SDS011;47518;51.776;9.370;2022-12-18T16:04:44;10.13;;;5.13;;
61617;SDS011;47518;51.776;9.370;2022-12-18T16:07:10;11.20;;;6.40;;
61617;SDS011;47518;51.776;9.370;2022-12-18T16:09:36;11.63;;;6.05;;
61617;SDS011;47518;51.776;9.370;2022-12-18T16:12:02;14.65;;;6.10;;
61617;SDS011;47518;51.776;9.370;2022-12-18T16:14:29;13.63;;;6.25;;
61617;SDS011;47518;51.776;9.370;2022-12-18T16:16:59;14.43;;;6.88;;
61617;SDS011;47518;51.776;9.370;2022-12-18T16:19:26;12.93;;;6.53;;
61617;SDS011;47518;51.776;9.370;2022-12-18T16:21:52;12.43;;;6.47;;
61617;SDS011;47518;51.776;9.370;2022-12-18T16:24:20;13.32;;;6.70;;
61617;SDS011;47518;51.776;9.370;2022-12-18T16:26:48;15.18;;;6.13;;
61617;SDS011;47518;51.776;9.370;2022-12-18T16:29:16;12.95;;;6.78;;
61617;SDS011;47518;51.776;9.370;2022-12-18T16:31:42;15.75;;;6.45;;
61617;SDS011;47518;51.776;9.370;2022-12-18T16:36:56;13.60;;;5.90;;
61617;SDS011;47518;51.776;9.370;2022-12-18T16:39:23;11.98;;;6.45;;
61617;SDS011;47518;51.776;9.370;2022-12-18T16:41:49;16.20;;;7.32;;
61617;SDS011;47518;51.776;9.370;2022-12-18T16:44:15;14.55;;;7.03;;
61617;SDS011;47518;51.776;9.370;2022-12-18T16:46:40;16.13;;;7.80;;
61617;SDS011;47518;51.776;9.370;2022-12-18T16:49:08;14.50;;;6.20;;
61617;SDS011;47518;51.776;9.370;2022-12-18T16:51:35;13.45;;;6.72;;
61617;SDS011;47518;51.776;9.370;2022-12-18T16:54:00;15.57;;;7.22;;
61617;SDS011;47518;51.776;9.370;2022-12-18T16:56:25;17.83;;;8.05;;
61617;SDS011;47518;51.776;9.370;2022-12-18T16:58:51;14.63;;;7.30;;
61617;SDS011;47518;51.776;9.370;2022-12-18T17:01:18;13.68;;;6.90;;
61617;SDS011;47518;51.776;9.370;2022-12-18T17:03:50;19.23;;;8.10;;
61617;SDS011;47518;51.776;9.370;2022-12-18T17:06:17;16.48;;;7.68;;
61617;SDS011;47518;51.776;9.370;2022-12-18T17:08:42;16.55;;;8.07;;
61617;SDS011;47518;51.776;9.370;2022-12-18T17:11:07;16.55;;;8.00;;
61617;SDS011;47518;51.776;9.370;2022-12-18T17:13:33;15.98;;;7.53;;
61617;SDS011;47518;51.776;9.370;2022-12-18T17:16:02;16.75;;;8.55;;
61617;SDS011;47518;51.776;9.370;2022-12-18T17:18:29;15.83;;;7.67;;
61617;SDS011;47518;51.776;9.370;2022-12-18T17:21:02;18.73;;;8.40;;
61617;SDS011;47518;51.776;9.370;2022-12-18T17:23:30;15.98;;;7.38;;
61617;SDS011;47518;51.776;9.370;2022-12-18T17:25:56;15.07;;;6.45;;
61617;SDS011;47518;51.776;9.370;2022-12-18T17:28:23;14.43;;;7.78;;
61617;SDS011;47518;51.776;9.370;2022-12-18T17:30:50;17.17;;;7.32;;
61617;SDS011;47518;51.776;9.370;2022-12-18T17:33:16;14.15;;;6.97;;
61617;SDS011;47518;51.776;9.370;2022-12-18T17:35:42;17.20;;;7.70;;
61617;SDS011;47518;51.776;9.370;2022-12-18T17:38:07;15.90;;;7.60;;
61617;SDS011;47518;51.776;9.370;2022-12-18T17:40:33;15.02;;;7.03;;
61617;SDS011;47518;51.776;9.370;2022-12-18T17:42:59;16.35;;;7.43;;
61617;SDS011;47518;51.776;9.370;2022-12-18T17:45:24;16.58;;;7.45;;
61617;SDS011;47518;51.776;9.370;2022-12-18T17:47:50;15.43;;;7.55;;
61617;SDS011;47518;51.776;9.370;2022-12-18T17:50:15;15.40;;;7.70;;
61617;SDS011;47518;51.776;9.370;2022-12-18T17:52:41;13.10;;;6.47;;
61617;SDS011;47518;51.776;9.370;2022-12-18T17:55:07;17.88;;;8.02;;
61617;SDS011;47518;51.776;9.370;2022-12-18T17:57:33;19.92;;;9.07;;